createdAt,value
2022-10-22T00:00:58.306Z,3.90
2022-10-22T00:02:59.966Z,3.60
2022-10-22T00:05:01.604Z,3.55
2022-10-22T00:07:03.364Z,4.13
2022-10-22T00:09:05.492Z,3.97
2022-10-22T00:11:13.074Z,4.00
2022-10-22T00:13:14.810Z,3.72
2022-10-22T00:15:16.252Z,3.85
2022-10-22T00:17:17.872Z,3.40
2022-10-22T00:19:19.583Z,3.63
2022-10-22T00:21:21.317Z,3.88
2022-10-22T00:23:25.599Z,3.47
2022-10-22T00:25:27.214Z,3.58
2022-10-22T00:27:28.780Z,3.85
2022-10-22T00:29:30.593Z,3.63
2022-10-22T00:31:32.149Z,3.42
2022-10-22T00:33:34.317Z,3.80
2022-10-22T00:35:36.137Z,3.25
2022-10-22T00:37:37.887Z,3.63
2022-10-22T00:39:39.647Z,3.22
2022-10-22T00:41:41.092Z,3.50
2022-10-22T00:44:04.620Z,3.53
2022-10-22T00:46:06.226Z,3.90
2022-10-22T00:48:13.204Z,3.80
2022-10-22T00:50:22.875Z,3.67
2022-10-22T00:52:25.093Z,3.70
2022-10-22T00:54:26.601Z,3.42
2022-10-22T00:56:28.409Z,4.03
2022-10-22T00:58:35.313Z,3.30
2022-10-22T01:00:36.995Z,3.75
2022-10-22T01:02:38.793Z,3.38
2022-10-22T01:04:41.143Z,3.45
2022-10-22T01:06:42.698Z,3.63
2022-10-22T01:08:53.396Z,3.60
2022-10-22T01:11:21.374Z,3.60
2022-10-22T01:13:37.042Z,3.85
2022-10-22T01:15:58.894Z,4.07
2022-10-22T01:18:08.275Z,3.75
2022-10-22T01:20:21.921Z,3.70
2022-10-22T01:22:31.041Z,2.97
2022-10-22T01:24:59.887Z,3.40
2022-10-22T01:27:26.669Z,3.30
2022-10-22T01:29:39.269Z,3.47
2022-10-22T01:31:49.108Z,3.47
2022-10-22T01:33:53.388Z,3.08
2022-10-22T01:35:55.211Z,3.05
2022-10-22T01:38:00.601Z,3.28
2022-10-22T01:40:02.881Z,2.92
2022-10-22T01:42:07.223Z,3.25
2022-10-22T01:44:25.528Z,2.75
2022-10-22T01:46:28.444Z,2.67
2022-10-22T01:48:48.541Z,2.75
2022-10-22T01:51:02.112Z,2.80
2022-10-22T01:53:21.489Z,2.50
2022-10-22T01:55:35.297Z,2.30
2022-10-22T01:58:03.990Z,2.28
2022-10-22T02:00:09.983Z,2.50
2022-10-22T02:02:34.745Z,2.70
2022-10-22T02:04:48.667Z,2.50
2022-10-22T02:06:52.976Z,2.40
2022-10-22T02:08:55.699Z,2.20
2022-10-22T02:10:59.849Z,2.10
2022-10-22T02:13:03.219Z,2.15
2022-10-22T02:15:05.829Z,2.10
2022-10-22T02:17:12.081Z,2.00
2022-10-22T02:19:23.305Z,2.15
2022-10-22T02:21:25.125Z,2.38
2022-10-22T02:23:27.243Z,2.17
2022-10-22T02:25:35.780Z,2.20
2022-10-22T02:27:43.450Z,2.05
2022-10-22T02:30:00.680Z,2.10
2022-10-22T02:32:05.815Z,2.13
2022-10-22T02:34:11.306Z,2.10
2022-10-22T02:36:14.832Z,1.77
2022-10-22T02:38:17.307Z,2.10
2022-10-22T02:40:20.016Z,2.20
2022-10-22T02:42:24.303Z,1.90
2022-10-22T02:44:25.935Z,1.92
2022-10-22T02:46:27.898Z,1.80
2022-10-22T02:48:29.436Z,1.60
2022-10-22T02:50:31.315Z,1.50
2022-10-22T02:52:33.046Z,1.52
2022-10-22T02:54:34.662Z,1.65
2022-10-22T02:56:36.361Z,1.70
2022-10-22T02:58:37.934Z,1.70
2022-10-22T03:00:40.179Z,1.83
2022-10-22T03:02:41.812Z,1.40
2022-10-22T03:04:43.547Z,1.73
2022-10-22T03:06:45.221Z,1.60
2022-10-22T03:08:46.865Z,1.30
2022-10-22T03:10:48.621Z,1.70
2022-10-22T03:12:50.249Z,1.60
2022-10-22T03:14:52.004Z,1.58
2022-10-22T03:16:53.599Z,1.40
2022-10-22T03:18:55.302Z,1.63
2022-10-22T03:21:10.843Z,1.30
2022-10-22T03:23:14.935Z,1.20
2022-10-22T03:25:22.679Z,1.40
2022-10-22T03:27:25.340Z,1.20
2022-10-22T03:29:28.097Z,1.40
2022-10-22T03:31:29.930Z,1.40
2022-10-22T03:33:31.403Z,1.60
2022-10-22T03:35:36.578Z,1.17
2022-10-22T03:37:39.620Z,1.70
2022-10-22T03:39:41.908Z,1.60
2022-10-22T03:41:44.341Z,1.70
2022-10-22T03:43:50.083Z,1.17
2022-10-22T03:45:51.797Z,1.67
2022-10-22T03:47:53.435Z,1.73
2022-10-22T03:49:55.150Z,1.58
2022-10-22T03:51:57.187Z,1.70
2022-10-22T03:53:58.960Z,1.85
2022-10-22T03:56:00.506Z,1.90
2022-10-22T03:58:02.624Z,1.65
2022-10-22T04:00:06.304Z,1.63
2022-10-22T04:02:08.722Z,1.80
2022-10-22T04:04:10.206Z,1.73
2022-10-22T04:06:13.826Z,1.80
2022-10-22T04:08:15.415Z,2.03
2022-10-22T04:10:17.221Z,1.70
2022-10-22T04:12:18.843Z,1.45
2022-10-22T04:14:23.475Z,1.75
2022-10-22T04:16:27.480Z,1.40
2022-10-22T04:18:31.683Z,1.50
2022-10-22T04:20:33.416Z,1.67
2022-10-22T04:22:35.806Z,1.38
2022-10-22T04:24:38.071Z,1.40
2022-10-22T04:26:39.812Z,1.30
2022-10-22T04:28:41.777Z,1.25
2022-10-22T04:30:43.500Z,1.13
2022-10-22T04:32:45.019Z,1.27
2022-10-22T04:34:50.354Z,1.27
2022-10-22T04:36:51.974Z,1.20
2022-10-22T04:39:01.218Z,1.20
2022-10-22T04:41:36.702Z,1.23
2022-10-22T04:43:38.647Z,1.15
2022-10-22T04:45:40.263Z,1.10
2022-10-22T04:47:42.113Z,1.00
2022-10-22T04:49:43.916Z,1.27
2022-10-22T04:51:45.650Z,1.15
2022-10-22T04:53:48.007Z,1.25
2022-10-22T04:55:49.640Z,1.00
2022-10-22T04:57:51.139Z,1.00
2022-10-22T04:59:52.733Z,1.20
2022-10-22T05:01:54.440Z,1.00
2022-10-22T05:03:58.514Z,1.20
2022-10-22T05:06:05.459Z,1.48
2022-10-22T05:08:07.014Z,1.30
2022-10-22T05:10:09.219Z,1.30
2022-10-22T05:12:10.978Z,1.20
2022-10-22T05:14:13.009Z,1.00
2022-10-22T05:16:15.175Z,1.10
2022-10-22T05:18:19.078Z,0.95
2022-10-22T05:20:24.224Z,1.00
2022-10-22T05:22:25.932Z,0.95
2022-10-22T05:24:29.164Z,0.93
2022-10-22T05:26:30.888Z,1.30
2022-10-22T05:28:33.716Z,0.88
2022-10-22T05:30:35.432Z,0.90
2022-10-22T05:32:36.892Z,0.80
2022-10-22T05:34:38.379Z,1.05
2022-10-22T05:36:40.337Z,1.15
2022-10-22T05:38:41.986Z,0.95
2022-10-22T05:40:43.941Z,0.95
2022-10-22T05:42:45.424Z,0.80
2022-10-22T05:44:48.362Z,1.00
2022-10-22T05:46:50.033Z,1.00
2022-10-22T05:48:53.143Z,0.82
2022-10-22T05:50:55.025Z,1.00
2022-10-22T05:52:56.797Z,0.90
2022-10-22T05:54:58.433Z,0.90
2022-10-22T05:57:00.127Z,0.90
2022-10-22T06:01:13.716Z,1.23
2022-10-22T06:03:15.287Z,1.33
2022-10-22T06:05:17.101Z,1.30
2022-10-22T06:07:18.794Z,1.40
2022-10-22T06:09:26.607Z,1.40
2022-10-22T06:11:31.085Z,1.20
2022-10-22T06:13:35.995Z,1.40
2022-10-22T06:15:37.760Z,1.20
2022-10-22T06:17:39.799Z,1.10
2022-10-22T06:19:42.533Z,0.90
2022-10-22T06:21:44.473Z,0.93
2022-10-22T06:23:46.118Z,0.80
2022-10-22T06:25:58.378Z,1.00
2022-10-22T06:28:00.048Z,0.93
2022-10-22T06:30:01.638Z,1.20
2022-10-22T06:32:03.368Z,1.20
2022-10-22T06:34:06.934Z,1.50
2022-10-22T06:36:10.362Z,1.60
2022-10-22T06:38:11.995Z,1.40
2022-10-22T06:40:13.883Z,1.25
2022-10-22T06:42:15.556Z,1.58
2022-10-22T06:44:21.346Z,1.38
2022-10-22T06:46:29.178Z,1.20
2022-10-22T06:48:33.091Z,1.27
2022-10-22T06:50:35.357Z,1.40
2022-10-22T06:52:37.003Z,1.20
2022-10-22T06:54:38.596Z,1.02
2022-10-22T06:56:40.790Z,0.90
2022-10-22T06:58:42.545Z,1.30
2022-10-22T07:00:45.298Z,1.00
2022-10-22T07:02:56.427Z,1.10
2022-10-22T07:05:04.016Z,1.10
2022-10-22T07:07:05.871Z,0.98
2022-10-22T07:09:08.010Z,1.00
2022-10-22T07:11:13.026Z,1.15
2022-10-22T07:13:14.743Z,1.20
2022-10-22T07:15:16.339Z,1.00
2022-10-22T07:17:18.109Z,1.25
2022-10-22T07:19:19.777Z,1.30
2022-10-22T07:21:22.702Z,1.20
2022-10-22T07:23:24.317Z,1.35
2022-10-22T07:25:26.254Z,1.10
2022-10-22T07:27:27.802Z,1.05
2022-10-22T07:29:32.663Z,1.17
2022-10-22T07:31:34.222Z,1.30
2022-10-22T07:33:37.155Z,1.10
2022-10-22T07:35:40.276Z,1.10
2022-10-22T07:37:45.849Z,1.42
2022-10-22T07:39:52.325Z,1.05
2022-10-22T07:41:53.962Z,1.02
2022-10-22T07:43:56.456Z,1.20
2022-10-22T07:46:02.325Z,1.20
2022-10-22T07:48:06.807Z,1.00
2022-10-22T07:50:08.696Z,1.50
2022-10-22T07:52:10.531Z,1.70
2022-10-22T07:54:12.021Z,1.85
2022-10-22T07:56:15.062Z,1.50
2022-10-22T07:58:20.887Z,1.45
2022-10-22T08:00:25.184Z,2.47
2022-10-22T08:02:27.161Z,1.77
2022-10-22T08:04:28.718Z,1.75
2022-10-22T08:06:30.457Z,1.80
2022-10-22T08:08:32.359Z,1.60
2022-10-22T08:10:34.939Z,1.70
2022-10-22T08:12:40.274Z,1.30
2022-10-22T08:14:50.966Z,1.50
2022-10-22T08:16:55.879Z,1.17
2022-10-22T08:18:57.677Z,1.00
2022-10-22T08:20:59.434Z,1.00
2022-10-22T08:23:01.576Z,1.00
2022-10-22T08:25:04.559Z,0.77
2022-10-22T08:27:06.086Z,0.90
2022-10-22T08:29:08.046Z,0.95
2022-10-22T08:31:14.863Z,1.13
2022-10-22T08:33:16.858Z,1.95
2022-10-22T08:35:21.228Z,1.67
2022-10-22T08:37:22.987Z,1.50
2022-10-22T08:39:24.721Z,1.40
2022-10-22T08:41:26.554Z,1.48
2022-10-22T08:43:52.959Z,1.48
2022-10-22T08:46:10.514Z,1.38
2022-10-22T08:48:30.782Z,1.40
2022-10-22T08:50:35.072Z,1.40
2022-10-22T08:52:40.798Z,1.58
2022-10-22T08:54:59.028Z,1.20
2022-10-22T08:57:23.627Z,1.10
2022-10-22T09:00:04.908Z,1.20
2022-10-22T09:02:30.296Z,1.10
2022-10-22T09:05:05.915Z,1.00
2022-10-22T09:07:13.621Z,0.88
2022-10-22T09:09:17.488Z,0.75
2022-10-22T09:11:25.676Z,1.00
2022-10-22T09:13:27.491Z,0.90
2022-10-22T09:15:31.312Z,0.68
2022-10-22T09:17:41.122Z,3.65
2022-10-22T09:20:04.553Z,7.55
2022-10-22T09:22:27.535Z,8.27
2022-10-22T09:24:42.147Z,7.30
2022-10-22T09:26:43.945Z,5.95
2022-10-22T09:28:50.937Z,5.70
2022-10-22T09:30:52.925Z,4.57
2022-10-22T09:33:01.391Z,3.90
2022-10-22T09:35:03.137Z,2.95
2022-10-22T09:37:09.000Z,3.13
2022-10-22T09:39:28.770Z,2.58
2022-10-22T09:41:30.754Z,2.10
2022-10-22T09:43:33.532Z,2.20
2022-10-22T09:45:35.146Z,1.50
2022-10-22T09:48:00.562Z,1.13
2022-10-22T09:50:37.779Z,1.20
2022-10-22T09:52:40.452Z,1.23
2022-10-22T09:54:44.436Z,0.70
2022-10-22T09:56:57.498Z,0.80
2022-10-22T09:58:59.180Z,0.70
2022-10-22T10:01:02.636Z,0.57
2022-10-22T10:03:04.356Z,0.52
2022-10-22T10:05:08.254Z,0.65
2022-10-22T10:07:22.952Z,0.60
2022-10-22T10:09:27.065Z,0.75
2022-10-22T10:11:45.627Z,0.80
2022-10-22T10:13:51.566Z,0.65
2022-10-22T10:16:08.009Z,0.60
2022-10-22T10:18:35.229Z,0.55
2022-10-22T10:20:46.239Z,0.60
2022-10-22T10:23:18.698Z,0.60
2022-10-22T10:25:46.486Z,0.70
2022-10-22T10:27:52.244Z,0.85
2022-10-22T10:30:20.784Z,0.60
2022-10-22T10:32:59.845Z,0.55
2022-10-22T10:35:06.527Z,0.47
2022-10-22T10:37:22.380Z,0.60
2022-10-22T10:39:32.805Z,0.50
2022-10-22T10:41:58.037Z,0.73
2022-10-22T10:44:37.156Z,0.40
2022-10-22T10:47:16.558Z,0.43
2022-10-22T10:49:26.816Z,0.40
2022-10-22T10:51:39.456Z,0.70
2022-10-22T10:53:55.587Z,0.47
2022-10-22T10:56:07.887Z,0.60
2022-10-22T10:58:34.494Z,0.55
2022-10-22T11:00:43.319Z,0.70
2022-10-22T11:03:09.663Z,0.77
2022-10-22T11:05:16.494Z,0.50
2022-10-22T11:07:34.251Z,0.82
2022-10-22T11:09:43.125Z,0.65
2022-10-22T11:11:53.892Z,0.73
2022-10-22T11:13:55.495Z,0.40
2022-10-22T11:16:19.116Z,0.80
2022-10-22T11:18:28.995Z,0.50
2022-10-22T11:20:38.678Z,0.95
2022-10-22T11:23:13.599Z,0.60
2022-10-22T11:25:13.294Z,0.50
2022-10-22T11:27:33.799Z,0.43
2022-10-22T11:29:41.823Z,0.50
2022-10-22T11:31:49.548Z,0.75
2022-10-22T11:34:33.328Z,0.70
2022-10-22T11:36:37.092Z,0.85
2022-10-22T11:38:38.850Z,0.90
2022-10-22T11:40:48.584Z,0.52
2022-10-22T11:43:08.661Z,0.70
2022-10-22T11:45:15.650Z,2.08
2022-10-22T11:47:24.159Z,0.82
2022-10-22T11:49:43.046Z,0.80
2022-10-22T11:51:47.067Z,0.98
2022-10-22T11:53:57.128Z,1.10
2022-10-22T11:56:06.597Z,0.95
2022-10-22T11:58:30.700Z,0.77
2022-10-22T12:00:39.627Z,1.15
2022-10-22T12:02:43.096Z,0.68
2022-10-22T12:04:44.952Z,1.05
2022-10-22T12:07:01.197Z,0.77
2022-10-22T12:09:06.972Z,0.93
2022-10-22T12:11:11.573Z,0.73
2022-10-22T12:13:22.304Z,0.80
2022-10-22T12:15:27.180Z,0.90
2022-10-22T12:17:32.676Z,0.70
2022-10-22T12:19:43.557Z,0.77
2022-10-22T12:21:51.873Z,0.90
2022-10-22T12:23:53.856Z,0.70
2022-10-22T12:25:55.569Z,0.60
2022-10-22T12:27:59.624Z,0.65
2022-10-22T12:30:03.360Z,0.60
2022-10-22T12:32:06.357Z,0.57
2022-10-22T12:34:14.345Z,0.40
2022-10-22T12:36:17.978Z,0.65
2022-10-22T12:38:25.434Z,0.40
2022-10-22T12:40:34.815Z,0.50
2022-10-22T12:42:38.281Z,0.60
2022-10-22T12:44:40.408Z,0.63
2022-10-22T12:46:44.328Z,0.60
2022-10-22T12:48:46.262Z,0.57
2022-10-22T12:50:56.283Z,0.60
2022-10-22T12:52:58.851Z,0.60
2022-10-22T12:55:00.643Z,0.60
2022-10-22T12:57:02.949Z,0.60
2022-10-22T12:59:20.773Z,0.60
2022-10-22T13:01:27.099Z,0.63
2022-10-22T13:03:30.703Z,0.70
2022-10-22T13:05:39.077Z,0.50
2022-10-22T13:07:52.090Z,0.50
2022-10-22T13:09:59.608Z,0.70
2022-10-22T13:12:06.792Z,0.60
2022-10-22T13:14:31.950Z,0.75
2022-10-22T13:16:33.797Z,0.60
2022-10-22T13:18:35.292Z,0.75
2022-10-22T13:20:37.569Z,0.50
2022-10-22T13:22:41.172Z,0.90
2022-10-22T13:24:50.096Z,0.70
2022-10-22T13:26:54.353Z,0.70
2022-10-22T13:28:57.937Z,0.60
2022-10-22T13:31:01.298Z,0.47
2022-10-22T13:33:17.835Z,0.90
2022-10-22T13:35:23.971Z,0.50
2022-10-22T13:37:26.453Z,0.80
2022-10-22T13:39:28.084Z,0.50
2022-10-22T13:41:32.387Z,0.50
2022-10-22T13:43:34.054Z,0.60
2022-10-22T13:45:35.845Z,0.40
2022-10-22T13:47:37.695Z,0.30
2022-10-22T13:49:43.263Z,0.70
2022-10-22T13:51:45.416Z,0.63
2022-10-22T13:53:48.595Z,0.45
2022-10-22T13:55:50.462Z,0.50
2022-10-22T13:58:03.891Z,0.60
2022-10-22T14:00:06.200Z,0.40
2022-10-22T14:02:14.424Z,0.47
2022-10-22T14:04:16.090Z,0.50
2022-10-22T14:06:19.545Z,0.40
2022-10-22T14:08:25.329Z,0.40
2022-10-22T14:10:27.900Z,0.50
2022-10-22T14:12:29.626Z,0.35
2022-10-22T14:14:31.623Z,0.40
2022-10-22T14:16:34.459Z,0.60
2022-10-22T14:18:36.828Z,0.50
2022-10-22T14:20:41.061Z,0.57
2022-10-22T14:22:42.732Z,0.68
2022-10-22T14:24:46.181Z,0.50
2022-10-22T14:26:48.066Z,0.47
2022-10-22T14:29:08.638Z,0.73
2022-10-22T14:31:11.658Z,0.70
2022-10-22T14:33:20.866Z,0.63
2022-10-22T14:35:22.948Z,0.50
2022-10-22T14:37:27.119Z,0.68
2022-10-22T14:39:28.841Z,0.60
2022-10-22T14:41:30.965Z,0.47
2022-10-22T14:43:32.733Z,0.57
2022-10-22T14:45:34.406Z,0.50
2022-10-22T14:47:36.241Z,0.70
2022-10-22T14:49:40.723Z,0.30
2022-10-22T14:51:42.432Z,0.50
2022-10-22T14:53:44.751Z,0.50
2022-10-22T14:55:47.498Z,0.40
2022-10-22T14:57:49.501Z,0.50
2022-10-22T14:59:54.777Z,0.50
2022-10-22T15:01:56.916Z,0.60
2022-10-22T15:04:01.287Z,0.60
2022-10-22T15:06:03.697Z,0.60
2022-10-22T15:08:05.610Z,0.55
2022-10-22T15:10:08.527Z,0.55
2022-10-22T15:12:10.219Z,0.70
2022-10-22T15:14:12.270Z,0.70
2022-10-22T15:16:16.406Z,0.47
2022-10-22T15:18:20.898Z,0.52
2022-10-22T15:20:22.660Z,0.52
2022-10-22T15:22:24.402Z,0.60
2022-10-22T15:24:26.234Z,0.60
2022-10-22T15:26:29.074Z,0.40
2022-10-22T15:28:33.773Z,0.85
2022-10-22T15:30:41.507Z,0.55
2022-10-22T15:32:43.219Z,0.63
2022-10-22T15:34:45.148Z,0.75
2022-10-22T15:36:48.023Z,0.65
2022-10-22T15:38:52.215Z,0.70
2022-10-22T15:41:08.101Z,0.57
2022-10-22T15:43:09.883Z,0.60
2022-10-22T15:45:11.611Z,0.45
2022-10-22T15:47:13.308Z,0.70
2022-10-22T15:49:15.089Z,0.80
2022-10-22T15:51:18.806Z,0.70
2022-10-22T15:53:20.348Z,0.75
2022-10-22T15:55:21.935Z,0.70
2022-10-22T15:57:23.582Z,0.73
2022-10-22T15:59:25.531Z,0.63
2022-10-22T16:01:27.386Z,0.75
2022-10-22T16:03:29.043Z,0.70
2022-10-22T16:05:31.084Z,0.70
2022-10-22T16:07:33.047Z,1.50
2022-10-22T16:09:34.707Z,3.47
2022-10-22T16:11:36.950Z,5.03
2022-10-22T16:13:38.835Z,6.00
2022-10-22T16:15:40.673Z,5.20
2022-10-22T16:17:42.237Z,4.55
2022-10-22T16:19:44.310Z,3.83
2022-10-22T16:21:50.079Z,2.80
2022-10-22T16:23:52.032Z,1.95
2022-10-22T16:25:54.343Z,1.63
2022-10-22T16:27:55.969Z,1.50
2022-10-22T16:29:57.593Z,1.10
2022-10-22T16:32:01.781Z,1.30
2022-10-22T16:34:03.553Z,1.23
2022-10-22T16:36:10.081Z,1.33
2022-10-22T16:38:12.344Z,1.25
2022-10-22T16:40:13.918Z,1.30
2022-10-22T16:42:15.600Z,1.75
2022-10-22T16:44:17.191Z,1.67
2022-10-22T16:46:20.674Z,2.47
2022-10-22T16:48:22.267Z,2.47
2022-10-22T16:50:26.629Z,2.65
2022-10-22T16:52:30.948Z,2.60
2022-10-22T16:54:33.703Z,2.92
2022-10-22T16:56:36.610Z,2.60
2022-10-22T16:58:39.128Z,2.58
2022-10-22T17:00:41.140Z,2.30
2022-10-22T17:02:43.098Z,2.17
2022-10-22T17:04:45.289Z,1.88
2022-10-22T17:06:47.181Z,2.13
2022-10-22T17:08:51.705Z,1.92
2022-10-22T17:10:53.437Z,1.92
2022-10-22T17:12:55.019Z,2.10
2022-10-22T17:14:56.674Z,2.10
2022-10-22T17:17:00.731Z,2.58
2022-10-22T17:19:04.279Z,2.20
2022-10-22T17:21:07.756Z,2.47
2022-10-22T17:23:09.642Z,2.83
2022-10-22T17:25:13.186Z,2.65
2022-10-22T17:27:15.042Z,2.08
2022-10-22T17:29:20.746Z,2.08
2022-10-22T17:31:23.802Z,1.95
2022-10-22T17:33:25.510Z,1.98
2022-10-22T17:37:35.356Z,3.25
2022-10-22T17:39:37.047Z,2.22
2022-10-22T17:41:38.907Z,2.00
2022-10-22T17:43:40.575Z,1.80
2022-10-22T17:45:43.015Z,2.05
2022-10-22T17:47:44.649Z,1.60
2022-10-22T17:49:46.631Z,1.88
2022-10-22T17:51:48.574Z,1.70
2022-10-22T17:53:57.966Z,2.00
2022-10-22T17:56:01.629Z,2.13
2022-10-22T17:58:03.254Z,1.63
2022-10-22T18:00:06.459Z,1.30
2022-10-22T18:02:16.072Z,1.50
2022-10-22T18:04:19.695Z,1.40
2022-10-22T18:06:22.057Z,1.30
2022-10-22T18:08:25.457Z,1.40
2022-10-22T18:10:27.059Z,1.38
2022-10-22T18:12:28.769Z,1.77
2022-10-22T18:14:30.306Z,1.50
2022-10-22T18:16:32.438Z,1.45
2022-10-22T18:18:35.834Z,1.48
2022-10-22T18:20:38.948Z,1.30
2022-10-22T18:22:42.178Z,1.60
2022-10-22T18:24:43.655Z,1.80
2022-10-22T18:26:45.286Z,1.50
2022-10-22T18:28:50.343Z,1.50
2022-10-22T18:30:54.745Z,1.90
2022-10-22T18:32:56.470Z,2.33
2022-10-22T18:34:58.273Z,2.78
2022-10-22T18:37:00.042Z,2.65
2022-10-22T18:39:03.098Z,2.20
2022-10-22T18:41:09.881Z,2.58
2022-10-22T18:43:11.710Z,3.10
2022-10-22T18:45:15.530Z,3.83
2022-10-22T18:47:17.204Z,5.13
2022-10-22T18:49:19.373Z,6.43
2022-10-22T18:51:22.019Z,9.45
2022-10-22T18:53:23.703Z,9.20
2022-10-22T18:55:25.297Z,9.73
2022-10-22T18:57:29.941Z,8.85
2022-10-22T18:59:31.928Z,8.60
2022-10-22T19:01:36.379Z,8.00
2022-10-22T19:03:38.019Z,8.20
2022-10-22T19:05:52.069Z,7.88
2022-10-22T19:07:53.695Z,6.80
2022-10-22T19:09:55.437Z,5.90
2022-10-22T19:11:57.446Z,4.50
2022-10-22T19:13:59.156Z,4.13
2022-10-22T19:16:06.005Z,3.72
2022-10-22T19:18:07.576Z,3.90
2022-10-22T19:20:09.841Z,3.42
2022-10-22T19:22:11.554Z,3.63
2022-10-22T19:24:16.105Z,3.17
2022-10-22T19:26:18.838Z,3.17
2022-10-22T19:28:20.372Z,3.22
2022-10-22T19:30:23.567Z,3.67
2022-10-22T19:32:27.570Z,3.90
2022-10-22T19:34:33.814Z,3.92
2022-10-22T19:36:36.858Z,3.63
2022-10-22T19:38:43.317Z,4.32
2022-10-22T19:40:44.991Z,3.67
2022-10-22T19:42:50.277Z,4.40
2022-10-22T19:44:52.058Z,3.95
2022-10-22T19:46:53.932Z,4.45
2022-10-22T19:48:59.566Z,3.90
2022-10-22T19:51:10.406Z,4.43
2022-10-22T19:53:14.278Z,3.75
2022-10-22T19:55:22.187Z,3.97
2022-10-22T19:57:23.887Z,3.50
2022-10-22T19:59:29.849Z,3.58
2022-10-22T20:01:33.689Z,3.80
2022-10-22T20:03:39.012Z,3.90
2022-10-22T20:05:42.783Z,4.28
2022-10-22T20:07:44.501Z,5.25
2022-10-22T20:09:49.054Z,5.72
2022-10-22T20:11:50.705Z,5.63
2022-10-22T20:13:52.774Z,5.35
2022-10-22T20:15:54.663Z,4.55
2022-10-22T20:17:56.214Z,5.10
2022-10-22T20:20:00.610Z,5.20
2022-10-22T20:22:02.447Z,5.90
2022-10-22T20:24:04.189Z,5.28
2022-10-22T20:26:05.965Z,5.75
2022-10-22T20:28:07.998Z,5.78
2022-10-22T20:30:10.464Z,5.50
2022-10-22T20:32:12.806Z,4.75
2022-10-22T20:34:16.957Z,5.07
2022-10-22T20:36:21.556Z,4.63
2022-10-22T20:38:23.228Z,4.00
2022-10-22T20:40:26.860Z,4.60
2022-10-22T20:42:30.736Z,5.05
2022-10-22T20:44:32.251Z,5.60
2022-10-22T20:46:34.394Z,5.80
2022-10-22T20:48:38.368Z,5.28
2022-10-22T20:50:40.007Z,5.93
2022-10-22T20:52:41.998Z,4.45
2022-10-22T20:54:45.782Z,4.72
2022-10-22T20:56:48.031Z,4.53
2022-10-22T20:58:53.861Z,4.07
2022-10-22T21:00:55.820Z,3.50
2022-10-22T21:02:57.349Z,4.10
2022-10-22T21:04:59.030Z,3.55
2022-10-22T21:07:03.582Z,3.90
2022-10-22T21:09:06.716Z,3.63
2022-10-22T21:11:08.328Z,3.70
2022-10-22T21:13:10.594Z,3.90
2022-10-22T21:15:15.719Z,3.72
2022-10-22T21:17:17.304Z,3.63
2022-10-22T21:19:19.817Z,3.78
2022-10-22T21:21:21.680Z,3.88
2022-10-22T21:23:23.293Z,4.68
2022-10-22T21:25:25.029Z,4.40
2022-10-22T21:27:26.673Z,4.53
2022-10-22T21:29:31.157Z,4.30
2022-10-22T21:31:32.851Z,4.38
2022-10-22T21:33:39.024Z,4.20
2022-10-22T21:35:40.853Z,3.90
2022-10-22T21:37:42.862Z,3.72
2022-10-22T21:39:44.498Z,3.83
2022-10-22T21:41:46.228Z,3.63
2022-10-22T21:43:49.822Z,3.63
2022-10-22T21:46:07.823Z,4.00
2022-10-22T21:48:11.517Z,3.47
2022-10-22T21:50:13.063Z,3.72
2022-10-22T21:52:17.012Z,3.72
2022-10-22T21:54:19.559Z,3.25
2022-10-22T21:56:28.873Z,3.20
2022-10-22T21:58:34.521Z,3.67
2022-10-22T22:00:36.677Z,2.95
2022-10-22T22:02:40.570Z,3.30
2022-10-22T22:04:42.577Z,3.15
2022-10-22T22:06:47.266Z,2.75
2022-10-22T22:08:51.611Z,3.35
2022-10-22T22:11:00.232Z,2.88
2022-10-22T22:13:04.728Z,3.00
2022-10-22T22:15:07.046Z,3.33
2022-10-22T22:17:10.546Z,2.95
2022-10-22T22:19:12.526Z,3.13
2022-10-22T22:21:17.910Z,3.08
2022-10-22T22:23:20.110Z,3.10
2022-10-22T22:25:25.301Z,3.13
2022-10-22T22:27:26.778Z,3.10
2022-10-22T22:29:28.770Z,3.30
2022-10-22T22:31:33.186Z,3.53
2022-10-22T22:33:34.699Z,3.67
2022-10-22T22:35:37.078Z,3.75
2022-10-22T22:37:38.691Z,3.58
2022-10-22T22:39:40.409Z,3.42
2022-10-22T22:41:43.545Z,3.60
2022-10-22T22:43:45.400Z,4.05
2022-10-22T22:45:47.211Z,3.15
2022-10-22T22:47:49.838Z,2.95
2022-10-22T22:49:51.412Z,2.45
2022-10-22T22:51:53.294Z,2.65
2022-10-22T22:53:57.703Z,2.67
2022-10-22T22:56:11.422Z,2.50
2022-10-22T22:58:15.977Z,2.13
2022-10-22T23:00:17.850Z,2.30
2022-10-22T23:02:26.896Z,2.20
2022-10-22T23:04:31.798Z,2.50
2022-10-22T23:06:37.306Z,2.30
2022-10-22T23:08:39.848Z,2.45
2022-10-22T23:10:41.561Z,2.70
2022-10-22T23:12:43.461Z,2.65
2022-10-22T23:14:45.587Z,2.58
2022-10-22T23:16:52.122Z,2.70
2022-10-22T23:18:55.137Z,2.97
2022-10-22T23:20:56.861Z,2.63
2022-10-22T23:23:01.611Z,2.67
2022-10-22T23:25:03.333Z,2.60
2022-10-22T23:27:05.204Z,2.55
2022-10-22T23:29:13.002Z,1.90
2022-10-22T23:31:17.027Z,2.10
2022-10-22T23:33:21.179Z,2.08
2022-10-22T23:35:22.866Z,1.70
2022-10-22T23:37:24.501Z,2.10
2022-10-22T23:39:29.338Z,2.08
2022-10-22T23:41:31.085Z,1.88
2022-10-22T23:43:38.689Z,1.80
2022-10-22T23:45:40.368Z,2.03
2022-10-22T23:47:42.459Z,1.98
2022-10-22T23:49:47.018Z,1.80
2022-10-22T23:51:48.878Z,2.00
2022-10-22T23:53:59.755Z,2.00
2022-10-22T23:56:11.080Z,1.65
2022-10-22T23:58:14.970Z,1.73
